Historyczne dane pomiarowe

Dodano dane terminowe – wersja testowa.

Dane z okresu 1951-2019

Wersja bazy: 1.34 [2019-03-16, lista zmian], aktualizacja planowana na 2019-04-15

Dane meteo z obszaru Polski uzyskane na podstawie danych udostępnionych przez Instytut Meteorologii i Gospodarki Wodnej – Państwowy Instytut Badawczy.

 

Wybierz Datę:    

       

TemperaturaWilgotnośćWiatrCiśnienieOpadyŚniegCzas trwania zjawisk
 Stacja t tx tn tng RH VA  wxwx mslp ppp RRR   cm mm wxwxwxwxwxwxwx
1987-08-14 13.9 17.9 9.4- 82.8- 6.0 3.0---- 0.7------------
1987-08-13 13.1 20.5 6.3- 86.0- 5.7 1.0---- 0.0------------
1987-08-12 13.0 18.3 8.7- 86.0- 3.3 2.3---- 1.3------------
1987-08-11 14.3 18.7 12.4- 83.8- 6.0 2.7---- 4.9------------
1987-08-10 15.6 19.5 12.9- 83.3- 5.3 2.7---- 0.8------------
1987-08-09 16.3 23.3 11.1- 76.0- 6.0 1.0---- 1.8------------
1987-08-08 14.5 21.6 6.5- 74.3- 3.3 1.7---- 0.0------------
1987-08-07 13.0 19.0 7.6- 74.5- 4.7 3.0---- 0.0------------
1987-08-06 11.7 14.5 10.6- 90.8- 6.0 3.3---- 1.4------------
1987-08-05 12.6 16.7 8.2- 79.5- 5.0 3.7---- 0.2------------
1987-08-04 13.8 17.0 11.2- 79.3- 3.7 2.0---- 0.9------------
1987-08-03 13.5 18.5 9.5- 77.8- 4.0 2.7---- 0.9------------
1987-08-02 13.5 18.5 10.2- 78.5- 5.0 4.0---- 0.0------------
1987-08-01 15.5 17.2 13.5- 90.3- 6.0 2.3---- 6.2------------
1987-07-31 16.8 21.5 15.3- 79.3- 5.3 2.3---- 0.0------------
1987-07-30 17.6 22.9 12.9- 71.0- 6.0 1.3---- 0.4------------
1987-07-29 15.2 18.6 11.7- 72.8- 5.3 3.0---- 0.0------------
1987-07-28 14.6 19.0 12.1- 81.0- 6.0 3.0---- 0.0------------
1987-07-27 12.6 15.5 8.8- 75.8- 5.3 3.0---- 1.6------------
1987-07-26 14.4 17.5 10.3- 69.3- 5.3 3.0---- 0.0------------
1987-07-25 17.6 21.3 14.5- 76.5- 3.7 4.0---- 0.0------------
1987-07-24 20.4 25.0 16.0- 77.0- 4.0 2.0---- 0.0------------
1987-07-23 21.0 26.9 15.6- 79.0- 5.3 1.0---- 5.1------------
1987-07-22 20.4 25.3 15.5- 82.3- 6.0 0.0---- 0.0------------
1987-07-21 19.9 26.3 12.8- 77.8- 2.7 0.7---- 0.2------------
1987-07-20 18.6 22.6 15.8- 86.8- 5.7 2.0---- 7.9------------
1987-07-19 19.7 23.7 17.8- 86.0- 6.0 2.3---- 15.8------------
1987-07-18 21.2 25.4 17.4- 84.5- 6.0 1.7---- 0.0------------
1987-07-17 20.0 25.8 14.6- 73.8- 5.3 4.3---- 9.3------------
1987-07-16 18.8 24.9 11.0- 64.3- 3.7 2.3---- 0.0------------
1987-07-15 17.4 24.1 8.5- 63.0- 0.3 2.0---- 0.0------------
1987-07-14 16.8 22.4 10.4- 69.5- 1.7 2.0---- 0.0------------
1987-07-13 15.7 20.0 11.4- 76.5- 5.3 3.7---- 0.0------------
1987-07-12 16.5 19.0 14.8- 94.0- 5.3 1.0---- 16.8------------
1987-07-11 13.8 17.9 9.9- 90.3- 6.0 1.7---- 23.1------------
1987-07-10 13.6 17.8 10.2- 83.0- 3.7 3.7---- 0.9------------
1987-07-09 17.2 23.8 15.3- 82.8- 6.0 2.3---- 0.0------------
1987-07-08 22.5 30.2 15.4- 64.0- 4.3 2.3---- 13.8------------
1987-07-07 21.2 28.0 11.7- 63.8- 0.7 1.7---- 0.0------------
1987-07-06 19.1 26.6 8.3- 62.5- 0.0 0.7---- 0.0------------
1987-07-05 16.8 23.2 10.7- 67.3- 3.3 1.3---- 0.0------------
1987-07-04 18.1 23.1 13.4- 65.0- 3.7 2.3---- 0.0------------
1987-07-03 18.1 23.8 11.1- 64.3- 1.7 1.7---- 0.0------------
1987-07-02 19.9 23.9 15.0- 69.5- 2.0 1.3---- 0.0------------
1987-07-01 24.3 31.4 19.5- 81.3- 6.0 2.3---- 2.2------------
1987-06-30 25.0 30.3 19.2- 74.8- 2.7 1.7---- 0.0------------
1987-06-29 18.8 25.1 10.1- 83.5- 6.0 1.0---- 0.0------------
1987-06-28 17.1 19.9 14.5- 84.5- 5.3 1.3---- 0.5------------
1987-06-27 18.8 22.4 16.0- 69.3- 2.7 2.0---- 0.0------------
1987-06-26 17.2 22.0 11.8- 76.3- 3.7 1.3---- 0.4------------
1987-06-25 14.3 19.4 10.6- 81.0- 6.0 2.0---- 0.7------------
1987-06-24 15.9 19.9 11.5- 73.0- 5.0 2.7---- 12.9------------
1987-06-23 16.7 20.9 12.9- 76.8- 6.0 0.7---- 0.0------------
1987-06-22 18.1 24.2 13.9- 83.0- 3.7 2.0---- 4.1------------
1987-06-21 18.8 25.7 12.4- 67.5- 4.7 0.3---- 0.0------------
1987-06-20 16.2 22.8 8.8- 73.8- 4.3 2.0---- 1.4------------
1987-06-19 13.0 17.0 8.5- 76.0- 5.7 3.0---- 0.5------------
1987-06-18 11.9 16.1 7.4- 76.3- 3.3 3.7---- 0.9------------
1987-06-17 13.1 16.2 10.9- 64.3- 4.0 4.0---- 0.0------------
1987-06-16 12.2 22.4 9.6- 92.0- 6.0 4.7---- 10.1------------
560.5 ms

 

Źródłem pochodzenia danych jest Instytut Meteorologii i Gospodarki Wodnej – Państwowy Instytut Badawczy. Dane Instytutu Meteorologii i Gospodarki Wodnej – Państwowego Instytutu Badawczego zostały przetworzone.

Dane źródłowe można odnaleźć na stronie https://dane.imgw.pl